createdAt,value
2023-09-13T00:02:17.490Z,97923.56
2023-09-13T00:04:44.427Z,97926.06
2023-09-13T00:07:12.221Z,97923.34
2023-09-13T00:09:42.537Z,97922.06
2023-09-13T00:12:09.766Z,97926.56
2023-09-13T00:14:37.684Z,97918.94
2023-09-13T00:17:04.424Z,97920.44
2023-09-13T00:19:31.644Z,97913.41
2023-09-13T00:21:58.713Z,97914.47
2023-09-13T00:24:25.460Z,97918.72
2023-09-13T00:26:51.959Z,97919.53
2023-09-13T00:29:18.891Z,97922.50
2023-09-13T00:31:45.724Z,97928.97
2023-09-13T00:34:12.338Z,97925.75
2023-09-13T00:36:38.846Z,97926.31
2023-09-13T00:39:06.705Z,97930.63
2023-09-13T00:41:33.492Z,97930.06
2023-09-13T00:44:00.687Z,97928.97
2023-09-13T00:46:29.239Z,97928.41
2023-09-13T00:48:56.930Z,97934.44
2023-09-13T00:51:23.688Z,97924.16
2023-09-13T00:53:50.336Z,97925.81
2023-09-13T00:56:17.957Z,97932.34
2023-09-13T00:58:45.246Z,97933.59
2023-09-13T01:01:13.827Z,97930.06
2023-09-13T01:03:42.470Z,97928.50
2023-09-13T01:06:10.692Z,97944.53
2023-09-13T01:08:40.901Z,97945.56
2023-09-13T01:11:08.139Z,97933.25
2023-09-13T01:13:35.274Z,97940.25
2023-09-13T01:16:15.714Z,97938.13
2023-09-13T01:19:00.618Z,97932.34
2023-09-13T01:21:53.771Z,97950.84
2023-09-13T01:24:40.777Z,97941.97
2023-09-13T01:27:16.314Z,97940.66
2023-09-13T01:29:45.215Z,97948.25
2023-09-13T01:32:11.955Z,97952.59
2023-09-13T01:34:38.482Z,97952.81
2023-09-13T01:37:06.062Z,97957.69
2023-09-13T01:39:32.625Z,97956.59
2023-09-13T01:42:09.010Z,97966.38
2023-09-13T01:44:41.389Z,97969.28
2023-09-13T01:47:09.247Z,97978.00
2023-09-13T01:49:37.573Z,97971.78
2023-09-13T01:52:05.864Z,97967.53
2023-09-13T01:54:36.568Z,97965.91
2023-09-13T01:57:03.927Z,97949.19
2023-09-13T01:59:33.861Z,97969.06
2023-09-13T02:02:00.619Z,97964.75
2023-09-13T02:04:32.949Z,97959.22
2023-09-13T02:07:00.818Z,97977.28
2023-09-13T02:09:27.555Z,97976.72
2023-09-13T02:11:54.055Z,97973.97
2023-09-13T02:14:20.683Z,97954.66
2023-09-13T02:16:47.528Z,97972.34
2023-09-13T02:19:14.263Z,97973.41
2023-09-13T02:21:42.212Z,97934.59
2023-09-13T02:24:08.933Z,97973.28
2023-09-13T02:26:36.368Z,97972.25
2023-09-13T02:29:14.082Z,97966.28
2023-09-13T02:31:40.759Z,97964.66
2023-09-13T02:34:07.361Z,97976.22
2023-09-13T02:36:33.879Z,97966.72
2023-09-13T02:39:00.870Z,97968.09
2023-09-13T02:41:27.402Z,97966.84
2023-09-13T02:43:54.020Z,97963.25
2023-09-13T02:46:20.628Z,97962.25
2023-09-13T02:48:47.333Z,97957.00
2023-09-13T02:51:15.690Z,97947.38
2023-09-13T02:53:43.333Z,97971.09
2023-09-13T02:56:10.479Z,97971.84
2023-09-13T02:58:38.525Z,97969.38
2023-09-13T03:01:11.597Z,97966.38
2023-09-13T03:03:41.088Z,97973.16
2023-09-13T03:06:14.823Z,97974.91
2023-09-13T03:08:43.018Z,97969.94
2023-09-13T03:11:18.052Z,97975.13
2023-09-13T03:13:45.660Z,97962.81
2023-09-13T03:16:21.017Z,97975.13
2023-09-13T03:18:50.335Z,97978.97
2023-09-13T03:21:21.260Z,97976.50
2023-09-13T03:23:52.526Z,97946.34
2023-09-13T03:26:23.706Z,97970.50
2023-09-13T03:28:54.044Z,97965.41
2023-09-13T03:31:22.766Z,97969.72
2023-09-13T03:33:51.045Z,97971.69
2023-09-13T03:36:18.331Z,97973.88
2023-09-13T03:38:49.166Z,97976.56
2023-09-13T03:41:21.486Z,97974.91
2023-09-13T03:43:48.793Z,97972.19
2023-09-13T03:46:15.413Z,97975.56
2023-09-13T03:48:42.616Z,97970.88
2023-09-13T03:51:10.353Z,97979.22
2023-09-13T03:53:37.634Z,97973.81
2023-09-13T03:56:05.551Z,97966.63
2023-09-13T03:58:35.263Z,97968.50
2023-09-13T04:01:03.957Z,97966.59
2023-09-13T04:03:30.868Z,97970.66
2023-09-13T04:05:57.768Z,97970.72
2023-09-13T04:08:24.519Z,97979.38
2023-09-13T04:10:51.782Z,97968.56
2023-09-13T04:13:19.513Z,97965.84
2023-09-13T04:15:46.775Z,97954.09
2023-09-13T04:18:14.301Z,97973.16
2023-09-13T04:20:44.577Z,97978.22
2023-09-13T04:23:11.130Z,97972.34
2023-09-13T04:25:39.182Z,97983.09
2023-09-13T04:28:08.144Z,97981.78
2023-09-13T04:30:35.240Z,97984.56
2023-09-13T04:33:03.201Z,97985.13
2023-09-13T04:35:31.059Z,97983.00
2023-09-13T04:37:58.472Z,97982.69
2023-09-13T04:40:25.384Z,97987.63
2023-09-13T04:43:16.349Z,97994.06
2023-09-13T04:45:44.177Z,97987.31
2023-09-13T04:48:11.781Z,97991.78
2023-09-13T04:50:38.291Z,97987.78
2023-09-13T04:53:04.989Z,97994.06
2023-09-13T04:55:31.801Z,97993.94
2023-09-13T04:57:58.631Z,98002.22
2023-09-13T05:00:27.993Z,98008.31
2023-09-13T05:02:54.833Z,98000.59
2023-09-13T05:05:21.509Z,98011.13
2023-09-13T05:07:47.992Z,98016.16
2023-09-13T05:10:14.721Z,98012.91
2023-09-13T05:12:41.433Z,98016.06
2023-09-13T05:15:08.413Z,98006.56
2023-09-13T05:17:34.981Z,98012.09
2023-09-13T05:20:01.670Z,98009.38
2023-09-13T05:22:28.264Z,98024.50
2023-09-13T05:24:54.959Z,98020.97
2023-09-13T05:27:21.478Z,98018.56
2023-09-13T05:29:49.441Z,98026.22
2023-09-13T05:32:16.071Z,98023.53
2023-09-13T05:34:42.699Z,98032.72
2023-09-13T05:37:09.252Z,98030.06
2023-09-13T05:39:35.782Z,98036.06
2023-09-13T05:42:03.597Z,98030.09
2023-09-13T05:44:30.098Z,98042.25
2023-09-13T05:46:56.815Z,98043.00
2023-09-13T05:49:23.829Z,98042.66
2023-09-13T05:51:51.076Z,98044.59
2023-09-13T05:54:17.663Z,98028.38
2023-09-13T05:56:44.923Z,98037.56
2023-09-13T05:59:13.475Z,98036.78
2023-09-13T06:01:40.430Z,98044.72
2023-09-13T06:04:08.580Z,98040.81
2023-09-13T06:06:36.161Z,98042.44
2023-09-13T06:09:04.803Z,98050.06
2023-09-13T06:11:32.719Z,98051.06
2023-09-13T06:13:59.396Z,98053.84
2023-09-13T06:16:26.238Z,98052.72
2023-09-13T06:18:53.234Z,98055.47
2023-09-13T06:21:19.784Z,98051.94
2023-09-13T06:23:46.547Z,98064.09
2023-09-13T06:26:13.887Z,98055.47
2023-09-13T06:28:40.954Z,98059.19
2023-09-13T06:31:08.355Z,98048.94
2023-09-13T06:36:06.388Z,98057.72
2023-09-13T06:38:34.604Z,98062.06
2023-09-13T06:41:02.234Z,98067.13
2023-09-13T06:46:05.166Z,98073.06
2023-09-13T06:48:34.888Z,98076.41
2023-09-13T06:51:44.160Z,98069.47
2023-09-13T06:53:51.410Z,98073.88
2023-09-13T06:56:20.440Z,98076.94
2023-09-13T06:58:51.718Z,98078.06
2023-09-13T07:03:54.605Z,98070.88
2023-09-13T07:06:22.873Z,98050.59
2023-09-13T07:08:49.530Z,98068.34
2023-09-13T07:11:19.152Z,98072.25
2023-09-13T07:13:45.804Z,98072.66
2023-09-13T07:16:12.438Z,98077.09
2023-09-13T07:18:39.013Z,98081.19
2023-09-13T07:21:05.516Z,98081.19
2023-09-13T07:23:32.087Z,98079.00
2023-09-13T07:25:58.749Z,98081.97
2023-09-13T07:28:25.614Z,98079.38
2023-09-13T07:30:52.382Z,98086.09
2023-09-13T07:33:18.975Z,98096.84
2023-09-13T07:35:45.491Z,98093.53
2023-09-13T07:38:12.208Z,98091.94
2023-09-13T07:40:40.042Z,98110.38
2023-09-13T07:43:09.925Z,98110.97
2023-09-13T07:45:36.616Z,98117.53
2023-09-13T07:48:04.216Z,98124.19
2023-09-13T07:50:41.576Z,98116.09
2023-09-13T07:53:12.192Z,98118.63
2023-09-13T07:55:39.767Z,98129.88
2023-09-13T07:58:08.036Z,98133.91
2023-09-13T08:00:34.849Z,98135.53
2023-09-13T08:03:02.529Z,98132.16
2023-09-13T08:05:29.184Z,98127.25
2023-09-13T08:07:56.129Z,98129.44
2023-09-13T08:10:25.793Z,98135.44
2023-09-13T08:12:53.346Z,98144.22
2023-09-13T08:15:23.003Z,98136.25
2023-09-13T08:17:57.436Z,98151.31
2023-09-13T08:20:24.127Z,98149.06
2023-09-13T08:22:50.768Z,98162.25
2023-09-13T08:25:17.550Z,98166.53
2023-09-13T08:27:44.747Z,98173.38
2023-09-13T08:30:11.485Z,98167.75
2023-09-13T08:32:38.522Z,98175.91
2023-09-13T08:35:05.841Z,98181.25
2023-09-13T08:37:32.626Z,98180.81
2023-09-13T08:39:59.264Z,98174.78
2023-09-13T08:42:29.438Z,98177.22
2023-09-13T08:44:58.219Z,98181.91
2023-09-13T08:47:31.527Z,98189.16
2023-09-13T08:50:09.041Z,98196.00
2023-09-13T08:52:38.808Z,98190.97
2023-09-13T08:55:07.951Z,98188.16
2023-09-13T08:57:36.425Z,98191.59
2023-09-13T09:00:03.320Z,98186.19
2023-09-13T09:02:33.110Z,98185.69
2023-09-13T09:05:01.209Z,98184.16
2023-09-13T09:07:28.944Z,98186.00
2023-09-13T09:09:56.749Z,98200.31
2023-09-13T09:12:25.463Z,98190.34
2023-09-13T09:14:54.891Z,98189.59
2023-09-13T09:17:23.827Z,98191.00
2023-09-13T09:19:50.942Z,98191.34
2023-09-13T09:22:19.172Z,98186.69
2023-09-13T09:24:47.132Z,98191.75
2023-09-13T09:27:14.181Z,98200.56
2023-09-13T09:29:41.180Z,98202.44
2023-09-13T09:32:09.875Z,98193.59
2023-09-13T09:34:42.570Z,98202.25
2023-09-13T09:37:10.157Z,98200.91
2023-09-13T09:39:43.114Z,98197.81
2023-09-13T09:42:17.004Z,98202.81
2023-09-13T09:44:43.907Z,98194.81
2023-09-13T09:47:14.322Z,98194.34
2023-09-13T09:49:42.430Z,98183.50
2023-09-13T09:52:09.104Z,98188.97
2023-09-13T09:54:40.447Z,98194.19
2023-09-13T09:57:07.507Z,98197.78
2023-09-13T09:59:37.853Z,98202.28
2023-09-13T10:02:04.992Z,98205.66
2023-09-13T10:04:45.729Z,98207.44
2023-09-13T10:07:12.501Z,98200.34
2023-09-13T10:09:46.375Z,98209.03
2023-09-13T10:12:14.465Z,98217.69
2023-09-13T10:14:42.975Z,98199.84
2023-09-13T10:17:12.992Z,98185.66
2023-09-13T10:19:43.025Z,98215.19
2023-09-13T10:22:13.813Z,98213.13
2023-09-13T10:24:49.202Z,98209.16
2023-09-13T10:27:18.560Z,98212.91
2023-09-13T10:29:58.863Z,98208.31
2023-09-13T10:32:47.212Z,98212.84
2023-09-13T10:35:15.095Z,98220.19
2023-09-13T10:37:56.590Z,98221.47
2023-09-13T10:40:29.060Z,98226.69
2023-09-13T10:42:55.735Z,98215.00
2023-09-13T10:45:23.667Z,98198.16
2023-09-13T10:47:51.904Z,98216.00
2023-09-13T10:50:20.668Z,98221.63
2023-09-13T10:52:49.613Z,98217.31
2023-09-13T10:55:17.012Z,98198.25
2023-09-13T10:57:44.517Z,98225.72
2023-09-13T11:00:12.708Z,98225.25
2023-09-13T11:02:41.582Z,98229.75
2023-09-13T11:05:12.798Z,98230.88
2023-09-13T11:07:47.579Z,98226.13
2023-09-13T11:10:15.799Z,98226.47
2023-09-13T11:12:50.113Z,98226.00
2023-09-13T11:15:24.302Z,98229.50
2023-09-13T11:17:55.528Z,98226.97
2023-09-13T11:20:30.704Z,98231.63
2023-09-13T11:26:04.068Z,98230.88
2023-09-13T11:28:44.528Z,98235.06
2023-09-13T11:31:14.985Z,98232.97
2023-09-13T11:33:52.448Z,98232.63
2023-09-13T11:36:19.600Z,98235.66
2023-09-13T11:38:54.432Z,98234.59
2023-09-13T11:41:21.394Z,98235.56
2023-09-13T11:44:03.068Z,98232.50
2023-09-13T11:46:34.093Z,98229.59
2023-09-13T11:49:03.561Z,98227.88
2023-09-13T11:54:18.954Z,98230.06
2023-09-13T11:56:48.596Z,98228.31
2023-09-13T11:59:18.769Z,98232.16
2023-09-13T12:01:48.593Z,98230.09
2023-09-13T12:06:50.085Z,98236.34
2023-09-13T12:09:23.693Z,98228.94
2023-09-13T12:11:57.425Z,98233.06
2023-09-13T12:14:40.762Z,98222.41
2023-09-13T12:17:14.953Z,98227.00
2023-09-13T12:19:41.666Z,98231.31
2023-09-13T12:22:13.303Z,98228.03
2023-09-13T12:24:50.779Z,98224.75
2023-09-13T12:27:17.436Z,98232.19
2023-09-13T12:29:48.141Z,98226.25
2023-09-13T12:32:16.202Z,98228.31
2023-09-13T12:34:43.344Z,98232.66
2023-09-13T12:37:10.035Z,98247.59
2023-09-13T12:39:36.578Z,98243.59
2023-09-13T12:42:09.386Z,98247.69
2023-09-13T12:44:38.202Z,98226.59
2023-09-13T12:47:05.701Z,98251.19
2023-09-13T12:49:32.328Z,98259.50
2023-09-13T12:51:59.035Z,98252.47
2023-09-13T12:54:25.699Z,98255.53
2023-09-13T12:56:52.308Z,98208.91
2023-09-13T12:59:22.709Z,98250.06
2023-09-13T13:01:55.412Z,98245.09
2023-09-13T13:04:24.508Z,98241.56
2023-09-13T13:07:00.894Z,98242.69
2023-09-13T13:09:27.816Z,98249.94
2023-09-13T13:11:54.859Z,98247.09
2023-09-13T13:14:24.569Z,98244.22
2023-09-13T13:16:59.935Z,98233.13
2023-09-13T13:19:55.162Z,98241.50
2023-09-13T13:22:25.042Z,98233.78
2023-09-13T13:24:53.412Z,98227.03
2023-09-13T13:27:20.501Z,98231.34
2023-09-13T13:29:47.148Z,98229.44
2023-09-13T13:32:13.657Z,98231.84
2023-09-13T13:34:40.269Z,98234.91
2023-09-13T13:37:06.775Z,98241.47
2023-09-13T13:39:33.359Z,98233.28
2023-09-13T13:41:59.986Z,98239.25
2023-09-13T13:44:26.700Z,98240.38
2023-09-13T13:46:53.256Z,98238.28
2023-09-13T13:49:20.148Z,98245.03
2023-09-13T13:51:50.655Z,98232.66
2023-09-13T13:54:19.029Z,98233.13
2023-09-13T13:56:46.043Z,98231.53
2023-09-13T13:59:13.559Z,98232.47
2023-09-13T14:01:40.573Z,98228.97
2023-09-13T14:04:08.586Z,98228.81
2023-09-13T14:06:35.327Z,98239.91
2023-09-13T14:09:05.130Z,98233.63
2023-09-13T14:11:32.010Z,98232.66
2023-09-13T14:13:58.522Z,98235.06
2023-09-13T14:16:25.046Z,98228.63
2023-09-13T14:18:51.644Z,98233.78
2023-09-13T14:21:18.219Z,98226.06
2023-09-13T14:23:46.016Z,98228.78
2023-09-13T14:26:12.904Z,98231.34
2023-09-13T14:28:39.473Z,98239.56
2023-09-13T14:31:13.027Z,98228.75
2023-09-13T14:33:43.422Z,98232.25
2023-09-13T14:36:10.992Z,98226.59
2023-09-13T14:38:37.752Z,98218.06
2023-09-13T14:41:04.272Z,98228.16
2023-09-13T14:43:30.776Z,98220.19
2023-09-13T14:45:57.439Z,98225.75
2023-09-13T14:48:24.164Z,98223.31
2023-09-13T14:50:50.652Z,98229.59
2023-09-13T14:53:17.160Z,98229.13
2023-09-13T14:55:43.706Z,98211.47
2023-09-13T14:58:10.355Z,98230.69
2023-09-13T15:00:36.937Z,98227.47
2023-09-13T15:03:04.673Z,98226.50
2023-09-13T15:05:31.334Z,98230.28
2023-09-13T15:07:57.801Z,98229.59
2023-09-13T15:10:24.684Z,98235.44
2023-09-13T15:12:51.288Z,98238.53
2023-09-13T15:15:18.132Z,98234.44
2023-09-13T15:17:44.991Z,98233.03
2023-09-13T15:20:11.749Z,98236.50
2023-09-13T15:22:38.336Z,98237.81
2023-09-13T15:25:05.219Z,98237.53
2023-09-13T15:27:31.833Z,98246.94
2023-09-13T15:29:58.653Z,98239.78
2023-09-13T15:32:25.361Z,98240.88
2023-09-13T15:34:52.067Z,98242.69
2023-09-13T15:37:18.576Z,98248.44
2023-09-13T15:39:45.698Z,98244.56
2023-09-13T15:42:12.423Z,98245.13
2023-09-13T15:44:38.993Z,98236.50
2023-09-13T15:47:05.614Z,98243.09
2023-09-13T15:49:32.402Z,98250.75
2023-09-13T15:51:59.000Z,98251.84
2023-09-13T15:54:26.421Z,98250.88
2023-09-13T15:56:53.375Z,98257.88
2023-09-13T15:59:19.882Z,98256.06
2023-09-13T16:01:46.449Z,98252.34
2023-09-13T16:04:13.046Z,98242.41
2023-09-13T16:06:40.005Z,98244.59
2023-09-13T16:09:07.201Z,98245.97
2023-09-13T16:11:35.441Z,98249.50
2023-09-13T16:14:02.543Z,98250.91
2023-09-13T16:16:32.177Z,98256.47
2023-09-13T16:18:58.890Z,98245.38
2023-09-13T16:21:26.954Z,98247.56
2023-09-13T16:23:53.865Z,98242.75
2023-09-13T16:26:21.517Z,98248.69
2023-09-13T16:28:48.238Z,98246.25
2023-09-13T16:31:14.924Z,98252.44
2023-09-13T16:33:41.549Z,98255.41
2023-09-13T16:36:08.078Z,98257.03
2023-09-13T16:38:34.762Z,98253.09
2023-09-13T16:41:01.372Z,98261.88
2023-09-13T16:43:27.807Z,98246.78
2023-09-13T16:45:54.427Z,98251.41
2023-09-13T16:48:33.675Z,98264.22
2023-09-13T16:51:01.681Z,98264.91
2023-09-13T16:53:28.167Z,98262.19
2023-09-13T16:55:55.002Z,98266.41
2023-09-13T16:58:21.652Z,98266.19
2023-09-13T17:00:49.826Z,98269.84
2023-09-13T17:03:16.924Z,98271.34
2023-09-13T17:05:43.828Z,98267.81
2023-09-13T17:08:10.325Z,98275.28
2023-09-13T17:10:36.971Z,98275.78
2023-09-13T17:13:03.964Z,98283.44
2023-09-13T17:15:30.626Z,98282.91
2023-09-13T17:17:57.196Z,98289.47
2023-09-13T17:20:23.979Z,98293.09
2023-09-13T17:22:50.526Z,98300.41
2023-09-13T17:25:17.134Z,98280.63
2023-09-13T17:27:43.890Z,98299.28
2023-09-13T17:30:10.748Z,98301.84
2023-09-13T17:32:37.277Z,98306.28
2023-09-13T17:35:04.038Z,98271.34
2023-09-13T17:37:30.577Z,98304.31
2023-09-13T17:39:57.582Z,98308.97
2023-09-13T17:42:24.666Z,98298.22
2023-09-13T17:44:52.176Z,98327.59
2023-09-13T17:47:22.291Z,98329.13
2023-09-13T17:49:49.902Z,98331.91
2023-09-13T17:52:18.074Z,98333.31
2023-09-13T17:54:44.728Z,98335.97
2023-09-13T17:57:11.309Z,98342.16
2023-09-13T17:59:38.803Z,98334.84
2023-09-13T18:02:06.072Z,98353.63
2023-09-13T18:04:32.898Z,98344.78
2023-09-13T18:06:59.618Z,98346.00
2023-09-13T18:09:26.305Z,98350.66
2023-09-13T18:11:54.753Z,98353.59
2023-09-13T18:14:21.871Z,98335.44
2023-09-13T18:16:48.695Z,98362.53
2023-09-13T18:19:17.235Z,98365.19
2023-09-13T18:21:43.873Z,98362.44
2023-09-13T18:24:10.379Z,98368.72
2023-09-13T18:26:36.992Z,98373.00
2023-09-13T18:29:03.909Z,98372.50
2023-09-13T18:31:30.547Z,98388.41
2023-09-13T18:33:57.329Z,98380.88
2023-09-13T18:36:23.964Z,98384.59
2023-09-13T18:38:51.391Z,98388.66
2023-09-13T18:41:18.161Z,98382.44
2023-09-13T18:43:44.788Z,98395.28
2023-09-13T18:46:13.149Z,98384.97
2023-09-13T18:48:39.980Z,98399.63
2023-09-13T18:51:06.855Z,98403.69
2023-09-13T18:53:34.487Z,98413.13
2023-09-13T18:56:01.234Z,98413.81
2023-09-13T18:58:28.989Z,98414.69
2023-09-13T19:01:00.366Z,98422.25
2023-09-13T19:03:28.448Z,98372.03
2023-09-13T19:05:59.559Z,98436.81
2023-09-13T19:08:28.764Z,98442.25
2023-09-13T19:10:56.194Z,98444.97
2023-09-13T19:13:23.051Z,98350.47
2023-09-13T19:16:05.119Z,98457.97
2023-09-13T19:18:33.802Z,98466.59
2023-09-13T19:21:01.152Z,98468.78
2023-09-13T19:23:30.953Z,98469.00
2023-09-13T19:26:00.214Z,98481.16
2023-09-13T19:28:29.434Z,98479.56
2023-09-13T19:30:59.527Z,98481.72
2023-09-13T19:33:27.906Z,98487.69
2023-09-13T19:35:59.543Z,98482.28
2023-09-13T19:38:30.389Z,98496.06
2023-09-13T19:40:58.196Z,98488.25
2023-09-13T19:43:26.358Z,98500.41
2023-09-13T19:46:00.245Z,98495.81
2023-09-13T19:48:27.920Z,98503.63
2023-09-13T19:50:58.053Z,98496.31
2023-09-13T19:53:26.056Z,98499.53
2023-09-13T19:55:52.824Z,98505.19
2023-09-13T19:58:19.717Z,98507.09
2023-09-13T20:00:48.441Z,98513.88
2023-09-13T20:03:15.630Z,98516.31
2023-09-13T20:05:42.575Z,98530.38
2023-09-13T20:08:09.947Z,98514.41
2023-09-13T20:10:36.549Z,98541.72
2023-09-13T20:13:04.536Z,98542.22
2023-09-13T20:15:31.386Z,98533.03
2023-09-13T20:17:59.497Z,98534.06
2023-09-13T20:20:27.754Z,98540.56
2023-09-13T20:22:54.929Z,98540.56
2023-09-13T20:25:21.879Z,98551.34
2023-09-13T20:27:48.718Z,98548.44
2023-09-13T20:30:15.432Z,98549.78
2023-09-13T20:32:42.831Z,98554.66
2023-09-13T20:35:09.678Z,98558.72
2023-09-13T20:37:36.276Z,98561.59
2023-09-13T20:40:05.229Z,98559.72
2023-09-13T20:42:31.948Z,98562.09
2023-09-13T20:44:58.636Z,98561.69
2023-09-13T20:47:25.132Z,98571.16
2023-09-13T20:49:51.614Z,98572.78
2023-09-13T20:52:21.520Z,98574.38
2023-09-13T20:54:48.431Z,98579.81
2023-09-13T20:57:14.945Z,98572.00
2023-09-13T20:59:42.236Z,98562.00
2023-09-13T21:02:08.792Z,98588.59
2023-09-13T21:04:35.894Z,98585.66
2023-09-13T21:07:05.054Z,98587.56
2023-09-13T21:09:31.808Z,98596.19
2023-09-13T21:11:58.416Z,98602.16
2023-09-13T21:14:24.914Z,98599.41
2023-09-13T21:16:51.473Z,98600.78
2023-09-13T21:19:19.281Z,98601.84
2023-09-13T21:21:46.106Z,98610.19
2023-09-13T21:24:13.036Z,98600.72
2023-09-13T21:26:42.265Z,98607.38
2023-09-13T21:29:09.080Z,98615.34
2023-09-13T21:31:36.754Z,98605.06
2023-09-13T21:34:03.698Z,98613.13
2023-09-13T21:36:30.306Z,98601.00
2023-09-13T21:38:56.897Z,98612.63
2023-09-13T21:41:24.201Z,98609.63
2023-09-13T21:43:50.764Z,98609.59
2023-09-13T21:46:17.315Z,98611.94
2023-09-13T21:48:44.963Z,98621.28
2023-09-13T21:51:12.647Z,98621.75
2023-09-13T21:53:39.973Z,98617.44
2023-09-13T21:56:08.716Z,98620.47
2023-09-13T21:58:35.664Z,98604.00
2023-09-13T22:01:02.700Z,98625.13
2023-09-13T22:03:30.639Z,98628.31
2023-09-13T22:05:57.429Z,98629.41
2023-09-13T22:08:23.973Z,98627.28
2023-09-13T22:11:01.571Z,98619.63
2023-09-13T22:13:28.747Z,98628.00
2023-09-13T22:15:55.578Z,98629.03
2023-09-13T22:18:22.139Z,98627.16
2023-09-13T22:20:50.072Z,98624.69
2023-09-13T22:23:18.651Z,98626.03
2023-09-13T22:25:45.786Z,98631.75
2023-09-13T22:28:12.310Z,98619.88
2023-09-13T22:30:41.967Z,98616.91
2023-09-13T22:33:08.718Z,98624.00
2023-09-13T22:35:35.426Z,98621.72
2023-09-13T22:38:02.452Z,98612.53
2023-09-13T22:40:29.288Z,98614.47
2023-09-13T22:42:55.850Z,98623.28
2023-09-13T22:45:22.603Z,98624.63
2023-09-13T22:47:49.277Z,98620.16
2023-09-13T22:50:15.878Z,98634.22
2023-09-13T22:52:42.765Z,98630.16
2023-09-13T22:55:09.429Z,98632.84
2023-09-13T22:57:36.147Z,98641.16
2023-09-13T23:00:04.539Z,98637.59
2023-09-13T23:02:32.248Z,98645.38
2023-09-13T23:04:58.849Z,98637.19
2023-09-13T23:07:25.876Z,98638.56
2023-09-13T23:09:52.346Z,98627.97
2023-09-13T23:12:19.026Z,98630.78
2023-09-13T23:14:45.522Z,98618.53
2023-09-13T23:17:12.740Z,98613.75
2023-09-13T23:19:39.317Z,98615.63
2023-09-13T23:22:06.078Z,98587.03
2023-09-13T23:24:35.945Z,98623.13
2023-09-13T23:27:03.729Z,98620.41
2023-09-13T23:29:30.730Z,98611.63
2023-09-13T23:31:58.992Z,98613.91
2023-09-13T23:34:25.687Z,98614.78
2023-09-13T23:36:52.988Z,98620.97
2023-09-13T23:39:19.565Z,98622.22
2023-09-13T23:41:46.513Z,98612.25
2023-09-13T23:44:14.788Z,98618.22
2023-09-13T23:46:41.423Z,98620.59
2023-09-13T23:49:09.126Z,98619.16
2023-09-13T23:51:36.054Z,98614.88
2023-09-13T23:54:02.543Z,98619.41
2023-09-13T23:56:29.036Z,98617.63
2023-09-13T23:58:57.387Z,98615.75
